Terminal Aerodrome Forecast
Issued by NWS Medford, OR

Home | Current Version | Previous Version | Text Only | Print | Product List | Glossary On
Versions: 1 2 3 4 5 6 7 8 9 10 11 12 13 14 15 16 17 18 19
113
FTUS46 KMFR 232338
TAFMFR
TAF
KMFR 232338Z 2400/2424 VRB04KT P6SM SCT060
     FM241000 00000KT 1/2SM FZFG OVC002
     FM241800 00000KT 2SM BR OVC004
     FM241900 00000KT 5SM BR SCT004
     FM242000 00000KT P6SM SKC=

USA.gov is the U.S. government's official web portal to all federal, state and local government web resources and services.